Time;durP1;ratioP1;P1;durP2;ratioP2;P2;SDS_P1;SDS_P2;PMS_P1;PMS_P2;Temp;Humidity;BMP_temperature;BMP_pressure;BME280_temperature;BME280_humidity;BME280_pressure;Samples;Min_cycle;Max_cycle;Signal;HPM_P1;HPM_P2
2024/03/23 00:01:58;;;;;;;14.52;9.40;;;;;;;2.97;81.62;93101.94;5042602;28;20119;-73
2024/03/23 00:04:25;;;;;;;16.50;9.90;;;;;;;2.92;82.32;93098.13;5028121;28;20144;-73
2024/03/23 00:06:54;;;;;;;17.10;10.73;;;;;;;2.93;82.29;93099.72;5043266;28;20203;-73
2024/03/23 00:09:21;;;;;;;17.08;10.45;;;;;;;2.87;82.49;93091.97;5042437;28;20374;-73
2024/03/23 00:11:48;;;;;;;16.42;11.02;;;;;;;2.78;82.42;93086.16;5034048;28;20041;-74
2024/03/23 00:14:14;;;;;;;16.23;11.40;;;;;;;2.82;82.48;93096.75;5042537;28;20528;-73
2024/03/23 00:16:41;;;;;;;15.23;10.68;;;;;;;2.85;82.35;93104.03;5043008;28;20064;-73
2024/03/23 00:19:08;;;;;;;17.05;11.50;;;;;;;2.85;82.48;93094.69;5043304;28;20095;-72
2024/03/23 00:21:40;;;;;;;15.98;10.60;;;;;;;2.86;82.55;93088.66;5025898;28;20029;-73
2024/03/23 00:24:12;;;;;;;15.80;10.25;;;;;;;2.90;82.11;93091.63;5042082;28;20040;-73
2024/03/23 00:26:38;;;;;;;19.50;9.95;;;;;;;2.81;82.44;93093.41;5041075;28;20037;-73
2024/03/23 00:29:05;;;;;;;17.25;10.52;;;;;;;2.85;82.53;93096.41;5043026;28;20044;-73
2024/03/23 00:31:31;;;;;;;16.73;9.85;;;;;;;2.89;82.41;93095.94;5039960;28;20029;-73
2024/03/23 00:33:58;;;;;;;15.85;10.05;;;;;;;2.89;81.91;93095.13;5040812;28;20049;-74
2024/03/23 00:36:25;;;;;;;14.73;9.48;;;;;;;2.81;80.84;93090.88;5042009;28;20124;-73
2024/03/23 00:38:52;;;;;;;12.75;8.82;;;;;;;2.78;81.22;93094.53;5041422;28;20501;-73
2024/03/23 00:41:18;;;;;;;15.00;9.63;;;;;;;2.77;82.65;93094.69;5039493;28;20100;-73
2024/03/23 00:43:45;;;;;;;15.13;9.43;;;;;;;2.71;83.38;93093.63;5042471;28;20114;-73
2024/03/23 00:46:11;;;;;;;20.35;11.43;;;;;;;2.74;82.45;93095.81;5038821;28;20108;-73
2024/03/23 00:48:38;;;;;;;23.30;13.80;;;;;;;2.68;83.35;93091.41;5042502;28;20124;-73
2024/03/23 00:51:04;;;;;;;23.00;14.15;;;;;;;2.66;83.45;93095.84;5039228;28;20090;-73
2024/03/23 00:53:30;;;;;;;19.45;12.43;;;;;;;2.30;82.63;93038.75;5041889;28;20060;-73
2024/03/23 00:55:56;;;;;;;72.10;39.83;;;;;;;2.57;82.95;93092.56;5041449;28;20423;-73
2024/03/23 00:58:21;;;;;;;43.97;25.88;;;;;;;2.48;83.98;93068.19;5039669;28;20037;-73
2024/03/23 01:00:47;;;;;;;44.75;24.63;;;;;;;2.34;83.55;93051.91;5041970;28;20112;-73
2024/03/23 01:03:12;;;;;;;44.65;25.70;;;;;;;2.34;84.65;93055.22;5042251;28;20503;-73
2024/03/23 01:05:38;;;;;;;46.97;24.85;;;;;;;2.37;83.29;93052.34;5041832;28;20074;-74
2024/03/23 01:08:04;;;;;;;43.58;25.83;;;;;;;2.42;83.85;93062.03;5038605;28;20469;-73
2024/03/23 01:10:29;;;;;;;44.55;24.98;;;;;;;2.30;84.78;93046.38;5042560;28;20031;-73
2024/03/23 01:12:55;;;;;;;42.35;24.63;;;;;;;2.46;85.28;93065.03;5041802;28;20041;-73
2024/03/23 01:15:20;;;;;;;51.53;25.63;;;;;;;2.40;86.17;93056.31;5038240;28;20040;-73
2024/03/23 01:17:46;;;;;;;47.40;25.70;;;;;;;2.09;84.52;93016.50;5038702;28;20079;-73
2024/03/23 01:20:11;;;;;;;60.33;27.88;;;;;;;2.51;83.99;93091.44;5041384;28;20409;-74
2024/03/23 01:22:37;;;;;;;89.72;37.05;;;;;;;2.49;84.45;93084.97;5038919;28;20393;-74
2024/03/23 01:25:03;;;;;;;107.78;43.00;;;;;;;2.35;85.55;93061.06;5040559;28;20116;-73
2024/03/23 01:27:28;;;;;;;103.80;41.85;;;;;;;2.32;85.57;93056.34;5038921;28;20049;-74
2024/03/23 01:29:54;;;;;;;95.45;38.55;;;;;;;2.49;85.51;93075.63;5040853;28;20068;-73
2024/03/23 01:32:19;;;;;;;120.22;47.45;;;;;;;2.52;85.74;93080.38;5041597;28;20048;-73
2024/03/23 01:34:45;;;;;;;113.45;45.45;;;;;;;2.36;87.16;93065.22;5041910;28;20021;-73
2024/03/23 01:37:10;;;;;;;92.13;41.40;;;;;;;2.41;86.36;93075.66;5036926;28;20508;-74
2024/03/23 01:39:36;;;;;;;65.60;30.75;;;;;;;2.19;88.95;93070.31;5039565;28;20021;-73
2024/03/23 01:42:01;;;;;;;105.82;44.33;;;;;;;2.09;88.22;93064.63;5036726;28;20064;-74
2024/03/23 01:44:27;;;;;;;81.80;38.03;;;;;;;2.15;88.03;93076.66;5039044;28;20118;-74
2024/03/23 01:46:52;;;;;;;55.40;28.38;;;;;;;1.96;87.88;93048.19;5041760;28;20460;-74
2024/03/23 01:49:18;;;;;;;69.18;32.20;;;;;;;2.20;88.06;93081.22;5041508;28;20136;-74
2024/03/23 01:51:44;;;;;;;42.88;22.77;;;;;;;2.13;87.96;93074.28;5034470;28;20040;-73
2024/03/23 01:54:10;;;;;;;32.58;17.60;;;;;;;1.83;87.99;93038.53;5040955;28;20025;-73
2024/03/23 01:56:36;;;;;;;29.42;17.35;;;;;;;1.83;88.55;93037.75;5041607;28;20025;-73
2024/03/23 01:59:05;;;;;;;28.23;15.60;;;;;;;2.09;89.22;93085.69;5037741;28;20037;-73
2024/03/23 02:01:32;;;;;;;36.70;20.13;;;;;;;1.76;88.53;93027.44;5041238;28;20029;-73
2024/03/23 02:03:57;;;;;;;100.95;45.17;;;;;;;1.90;87.43;93048.03;5041134;28;20397;-74
2024/03/23 02:06:26;;;;;;;67.75;34.33;;;;;;;1.94;88.38;93039.94;5036259;28;20049;-74
2024/03/23 02:08:52;;;;;;;71.75;33.28;;;;;;;2.02;88.22;93072.06;5041059;28;20044;-74
2024/03/23 02:11:18;;;;;;;56.75;27.45;;;;;;;1.96;88.20;93060.84;5041782;28;20033;-73
2024/03/23 02:13:43;;;;;;;48.80;25.50;;;;;;;1.99;87.63;93073.19;5038330;28;20060;-73
2024/03/23 02:16:09;;;;;;;39.80;20.20;;;;;;;1.85;88.00;93048.53;5040136;28;20052;-74
2024/03/23 02:18:35;;;;;;;28.75;16.60;;;;;;;1.42;88.57;92986.19;5041535;28;20040;-74
2024/03/23 02:21:00;;;;;;;30.08;16.30;;;;;;;1.83;87.30;93042.81;5035822;28;21081;-73
2024/03/23 02:23:29;;;;;;;23.67;15.45;;;;;;;2.10;87.55;93078.88;5041054;28;20037;-73
2024/03/23 02:25:54;;;;;;;24.13;15.25;;;;;;;1.70;87.54;93033.16;5041212;28;20033;-74
2024/03/23 02:28:20;;;;;;;21.02;13.30;;;;;;;1.57;86.98;93008.34;5042339;28;20033;-73
2024/03/23 02:30:46;;;;;;;22.10;14.88;;;;;;;1.98;86.99;93071.59;5044991;28;20033;-73
2024/03/23 02:33:11;;;;;;;24.10;15.02;;;;;;;2.03;86.74;93078.72;5044589;28;20037;-73
2024/03/23 02:35:37;;;;;;;18.15;12.00;;;;;;;1.68;85.75;93048.53;5040539;28;20618;-74
2024/03/23 02:38:03;;;;;;;20.20;12.00;;;;;;;1.62;86.51;93045.84;5044850;28;20043;-74
2024/03/23 02:40:28;;;;;;;21.33;13.73;;;;;;;1.56;87.92;93034.59;5042637;28;20041;-74
2024/03/23 02:42:54;;;;;;;25.10;15.63;;;;;;;1.73;89.00;93071.63;5043414;28;20033;-73
2024/03/23 02:45:20;;;;;;;23.00;15.70;;;;;;;1.64;89.45;93052.31;5044598;28;20037;-74
2024/03/23 02:47:45;;;;;;;26.63;17.85;;;;;;;1.76;88.64;93077.31;5043106;28;20163;-74
2024/03/23 02:50:11;;;;;;;29.85;21.25;;;;;;;1.46;88.77;93035.56;5040028;28;20123;-73
2024/03/23 02:52:36;;;;;;;26.63;17.35;;;;;;;1.39;88.67;93023.69;5043919;28;20593;-74
2024/03/23 02:55:03;;;;;;;23.00;15.00;;;;;;;1.50;88.31;93038.56;5043713;28;20059;-73
2024/03/23 02:57:29;;;;;;;24.90;15.68;;;;;;;1.70;89.67;93073.66;5039364;28;20119;-74
2024/03/23 02:59:54;;;;;;;22.73;15.13;;;;;;;1.47;89.27;93038.88;5043050;28;20089;-74
2024/03/23 03:02:20;;;;;;;27.85;16.95;;;;;;;1.41;90.17;93032.72;5044546;28;20056;-75
2024/03/23 03:04:46;;;;;;;;;;;;;;;1.72;89.51;93070.03;5041484;28;20956;-74
2024/03/23 03:07:12;;;;;;;22.52;14.52;;;;;;;1.57;89.77;93072.41;5043711;28;19928;-74
2024/03/23 03:09:38;;;;;;;22.27;15.23;;;;;;;1.49;90.20;93059.75;5045566;28;20664;-76
2024/03/23 03:12:05;;;;;;;24.85;15.73;;;;;;;1.55;90.83;93063.41;5040551;28;20048;-74
2024/03/23 03:14:31;;;;;;;27.13;16.77;;;;;;;1.44;91.79;93055.16;5041586;28;20065;-75
2024/03/23 03:16:56;;;;;;;25.77;16.50;;;;;;;1.35;90.65;93037.59;5042327;28;20033;-74
2024/03/23 03:19:22;;;;;;;27.15;16.67;;;;;;;1.35;89.90;93030.00;5042469;28;20075;-74
2024/03/23 03:21:50;;;;;;;30.20;18.38;;;;;;;1.45;89.61;93056.72;5043640;28;20037;-75
2024/03/23 03:24:15;;;;;;;31.52;19.27;;;;;;;1.22;89.71;93017.81;5044419;28;20062;-75
2024/03/23 03:26:42;;;;;;;34.15;21.10;;;;;;;1.45;91.01;93059.25;5034329;28;20139;-75
2024/03/23 03:29:08;;;;;;;31.30;18.88;;;;;;;1.52;90.37;93071.31;5042009;28;20120;-75
2024/03/23 03:31:33;;;;;;;30.65;18.65;;;;;;;1.26;90.13;93037.59;5040083;28;20076;-74
2024/03/23 03:33:59;;;;;;;26.67;17.88;;;;;;;1.35;90.11;93055.31;5042561;28;20887;-75
2024/03/23 03:36:24;;;;;;;39.45;24.60;;;;;;;1.29;90.43;93039.03;5036658;28;20041;-74
2024/03/23 03:38:50;;;;;;;104.60;68.57;;;;;;;1.50;90.45;93065.59;5041983;28;20374;-75
2024/03/23 03:41:15;;;;;;;48.40;31.77;;;;;;;1.56;90.39;93065.78;5041711;28;20135;-74
2024/03/23 03:43:41;;;;;;;63.85;42.50;;;;;;;1.27;89.42;93038.38;5030904;28;20025;-75
2024/03/23 03:46:08;;;;;;;63.00;42.53;;;;;;;1.08;89.80;93009.91;5042882;28;20052;-75
2024/03/23 03:48:34;;;;;;;41.58;28.88;;;;;;;1.41;90.30;93064.81;5040860;28;20033;-74
2024/03/23 03:50:59;;;;;;;;;;;;;;;1.63;90.15;93075.25;5045289;28;20029;-75
2024/03/23 03:53:26;;;;;;;49.72;32.05;;;;;;;1.42;91.13;93076.50;5044010;28;20385;-74
2024/03/23 03:55:51;;;;;;;46.53;28.67;;;;;;;1.33;91.02;93063.06;5041176;28;20057;-74
2024/03/23 03:58:17;;;;;;;41.22;25.98;;;;;;;1.16;90.43;93037.72;5044337;28;20055;-75
2024/03/23 04:00:42;;;;;;;32.60;23.45;;;;;;;1.15;91.37;93060.69;5040720;28;20119;-75
2024/03/23 04:03:08;;;;;;;29.52;21.95;;;;;;;1.01;92.20;93040.09;5042875;28;20029;-74
2024/03/23 04:05:33;;;;;;;29.88;21.02;;;;;;;0.93;92.00;93033.25;5043932;28;20040;-75
2024/03/23 04:07:59;;;;;;;31.13;21.60;;;;;;;1.23;92.18;93075.84;5044230;28;20029;-74
2024/03/23 04:10:24;;;;;;;27.17;20.77;;;;;;;1.10;90.98;93045.94;5044361;28;20108;-74
2024/03/23 04:12:50;;;;;;;25.77;19.42;;;;;;;1.19;91.33;93061.94;5042496;28;20031;-74
2024/03/23 04:15:16;;;;;;;26.95;18.65;;;;;;;1.00;91.04;93032.63;5043129;28;20037;-74
2024/03/23 04:17:42;;;;;;;28.50;21.13;;;;;;;1.12;91.14;93049.13;5043525;28;20555;-75
2024/03/23 04:20:10;;;;;;;28.15;20.20;;;;;;;1.08;91.38;93042.78;5040382;28;20056;-74
2024/03/23 04:22:40;;;;;;;32.95;21.75;;;;;;;1.31;91.18;93070.03;5039652;28;20041;-74
2024/03/23 04:25:10;;;;;;;33.05;22.02;;;;;;;1.35;90.61;93080.63;5041182;28;20082;-74
2024/03/23 04:27:36;;;;;;;27.38;18.35;;;;;;;1.35;90.19;93076.38;5038425;28;20082;-74
2024/03/23 04:30:04;;;;;;;23.23;16.42;;;;;;;1.22;89.99;93064.16;5040180;28;20044;-74
2024/03/23 04:32:29;;;;;;;28.95;18.05;;;;;;;1.09;90.16;93054.50;5040074;28;20080;-73
2024/03/23 04:34:56;;;;;;;27.02;17.73;;;;;;;1.33;90.45;93083.31;5040775;28;20397;-74
2024/03/23 04:37:22;;;;;;;23.50;15.05;;;;;;;1.02;90.99;93031.53;5031877;28;20539;-74
2024/03/23 04:39:48;;;;;;;25.02;15.27;;;;;;;1.05;90.01;93046.41;5040948;28;20116;-74
2024/03/23 04:42:17;;;;;;;22.52;13.52;;;;;;;1.10;90.43;93045.94;5041878;28;20040;-74
2024/03/23 04:44:42;;;;;;;31.90;18.77;;;;;;;1.16;90.26;93072.38;5040356;28;20067;-74
2024/03/23 04:47:08;;;;;;;27.13;15.32;;;;;;;1.03;90.72;93050.81;5041967;28;20517;-74
2024/03/23 04:49:34;;;;;;;25.13;14.55;;;;;;;1.22;91.78;93083.59;5040229;28;20063;-73
2024/03/23 04:51:59;;;;;;;42.65;26.58;;;;;;;1.20;92.92;93087.09;5045480;28;20041;-74
2024/03/23 04:54:25;;;;;;;30.98;19.48;;;;;;;1.27;94.65;93086.47;5040303;28;20045;-73
2024/03/23 04:56:50;;;;;;;24.85;15.25;;;;;;;1.37;93.15;93083.78;5041465;28;20457;-74
2024/03/23 04:59:16;;;;;;;22.42;13.80;;;;;;;1.33;94.03;93086.63;5041185;28;20041;-74
2024/03/23 05:01:41;;;;;;;20.27;14.18;;;;;;;1.40;92.82;93086.81;5040486;28;20025;-74
2024/03/23 05:04:07;;;;;;;22.23;14.60;;;;;;;1.48;92.19;93087.75;5039556;28;20037;-74
2024/03/23 05:06:34;;;;;;;23.48;15.07;;;;;;;1.34;91.05;93049.44;5044445;28;20115;-75
2024/03/23 05:08:59;;;;;;;24.50;15.73;;;;;;;0.88;91.05;92986.66;5042584;28;20037;-74
2024/03/23 05:11:25;;;;;;;23.23;14.73;;;;;;;1.40;90.46;93048.84;5042117;28;20384;-74
2024/03/23 05:13:50;;;;;;;28.73;17.02;;;;;;;1.47;90.95;93056.59;5042692;28;20036;-75
2024/03/23 05:16:16;;;;;;;30.80;15.35;;;;;;;1.45;90.20;93040.78;5040375;28;20496;-75
2024/03/23 05:18:42;;;;;;;24.88;15.48;;;;;;;1.74;90.02;93072.41;5045303;28;20036;-74
2024/03/23 05:21:07;;;;;;;37.92;20.42;;;;;;;1.79;89.66;93077.78;5042398;28;20048;-74
2024/03/23 05:23:33;;;;;;;47.70;24.35;;;;;;;1.86;88.92;93078.72;5042535;28;20033;-74
2024/03/23 05:25:58;;;;;;;66.90;37.70;;;;;;;1.76;89.67;93059.59;5039034;28;20082;-73
2024/03/23 05:28:24;;;;;;;50.95;29.92;;;;;;;1.71;90.25;93053.25;5042246;28;20035;-74
2024/03/23 05:30:56;;;;;;;42.40;24.67;;;;;;;1.77;91.18;93056.91;5044163;28;20586;-74
2024/03/23 05:33:22;;;;;;;38.72;25.65;;;;;;;1.79;91.79;93067.66;5041943;28;20040;-74
2024/03/23 05:36:00;;;;;;;37.58;23.98;;;;;;;1.31;94.62;93050.56;5042658;28;20056;-74
2024/03/23 05:38:26;;;;;;;27.67;19.77;;;;;;;1.66;93.84;93088.41;5039612;28;20036;-74
2024/03/23 05:40:59;;;;;;;23.90;17.35;;;;;;;1.72;93.95;93070.03;5043464;28;20033;-74
2024/03/23 05:43:25;;;;;;;21.83;15.38;;;;;;;1.56;96.49;93080.16;5046207;28;20033;-74
2024/03/23 05:46:08;;;;;;;29.10;17.80;;;;;;;1.37;98.21;93082.03;5044915;28;20557;-74
2024/03/23 05:48:34;;;;;;;27.38;16.05;;;;;;;1.26;100.00;93057.03;5041782;28;20393;-74
2024/03/23 05:51:00;;;;;;;32.80;18.42;;;;;;;1.07;100.00;93028.56;5038746;28;20044;-74
2024/03/23 05:53:26;;;;;;;21.77;14.63;;;;;;;1.26;100.00;93047.72;5031356;28;20512;-74
2024/03/23 05:56:00;;;;;;;33.13;20.55;;;;;;;1.43;100.00;93040.91;5044907;28;20018;-73
2024/03/23 05:58:27;;;;;;;34.78;17.50;;;;;;;1.85;100.00;93071.31;5039712;28;20120;-73
2024/03/23 06:01:02;;;;;;;30.13;17.65;;;;;;;1.94;100.00;93074.63;5039743;28;20489;-73
2024/03/23 06:03:29;;;;;;;32.85;18.15;;;;;;;1.95;100.00;93071.16;5046062;28;20435;-73
2024/03/23 06:05:55;;;;;;;37.08;18.77;;;;;;;2.07;100.00;93061.44;5043240;28;20398;-72
2024/03/23 06:08:21;;;;;;;36.40;20.55;;;;;;;1.92;100.00;93061.31;5048381;28;20512;-72
2024/03/23 06:10:47;;;;;;;;;;;;;;;2.51;100.00;93073.69;5046849;28;20029;-72
2024/03/23 06:13:13;;;;;;;48.67;22.58;;;;;;;2.63;99.85;93068.28;5046787;28;19924;-72
2024/03/23 06:15:38;;;;;;;59.25;28.55;;;;;;;2.57;100.00;93035.97;5047709;28;20025;-73
2024/03/23 06:18:05;;;;;;;52.17;25.17;;;;;;;2.63;100.00;93027.69;5046125;28;20429;-74
2024/03/23 06:20:30;;;;;;;63.92;28.80;;;;;;;2.83;99.50;93030.66;5046611;28;20049;-74
2024/03/23 06:22:56;;;;;;;57.88;27.25;;;;;;;3.29;97.47;93055.28;5041620;28;20528;-74
2024/03/23 06:25:21;;;;;;;58.42;27.50;;;;;;;3.43;97.44;93061.38;5045430;28;20124;-75
2024/03/23 06:27:47;;;;;;;55.38;25.15;;;;;;;3.46;97.50;93028.03;5044883;28;20495;-75
2024/03/23 06:30:13;;;;;;;61.38;25.60;;;;;;;3.71;95.65;93021.97;5045944;28;20032;-75
2024/03/23 06:32:38;;;;;;;62.88;28.40;;;;;;;3.96;93.83;93030.16;5047321;28;20037;-75
2024/03/23 06:35:08;;;;;;;62.10;28.23;;;;;;;4.01;94.55;93020.25;5046049;28;20029;-75
2024/03/23 06:37:34;;;;;;;59.95;26.38;;;;;;;4.23;93.69;93022.91;5043809;28;20038;-74
2024/03/23 06:39:59;;;;;;;55.38;26.52;;;;;;;4.57;92.69;93058.16;5038239;28;20048;-74
2024/03/23 06:42:25;;;;;;;51.40;24.50;;;;;;;4.59;92.44;93056.22;5045246;28;20036;-74
2024/03/23 06:44:50;;;;;;;50.00;21.50;;;;;;;4.74;92.42;93029.03;5046960;28;20033;-74
2024/03/23 06:47:16;;;;;;;46.92;21.73;;;;;;;5.00;91.50;93017.53;5046733;28;20121;-74
2024/03/23 06:49:41;;;;;;;48.25;20.80;;;;;;;5.21;89.63;93039.72;5043448;28;20060;-73
2024/03/23 06:52:07;;;;;;;44.13;21.05;;;;;;;5.58;88.69;93054.16;5045071;28;20056;-73
2024/03/23 06:54:32;;;;;;;47.92;22.58;;;;;;;5.61;87.85;93007.94;5043525;28;20025;-73
2024/03/23 06:56:58;;;;;;;55.65;23.60;;;;;;;6.08;86.83;93056.75;5044131;28;20502;-73
2024/03/23 06:59:23;;;;;;;45.85;22.60;;;;;;;5.94;85.71;93021.88;5045591;28;20032;-74
2024/03/23 07:01:49;;;;;;;46.40;22.33;;;;;;;6.41;84.49;93017.91;5048039;28;20840;-74
2024/03/23 07:04:14;;;;;;;41.47;21.77;;;;;;;6.67;83.71;93059.06;5042708;28;20033;-73
2024/03/23 07:06:44;;;;;;;50.75;25.00;;;;;;;6.98;83.37;93009.28;5045119;28;20044;-74
2024/03/23 07:09:10;;;;;;;48.17;21.95;;;;;;;7.41;81.42;93015.84;5041552;28;20029;-74
2024/03/23 07:11:35;;;;;;;45.42;19.60;;;;;;;8.08;81.00;93038.09;5046734;28;20063;-74
2024/03/23 07:14:02;;;;;;;40.30;18.33;;;;;;;8.43;78.83;93024.28;5047173;28;20040;-73
2024/03/23 07:16:28;;;;;;;39.80;19.13;;;;;;;7.80;76.35;92951.34;5044024;28;20415;-74
2024/03/23 07:18:53;;;;;;;36.28;19.42;;;;;;;8.38;77.48;93034.34;5040525;28;20039;-74
2024/03/23 07:21:19;;;;;;;40.13;18.80;;;;;;;8.55;75.87;93001.41;5042092;28;20088;-74
2024/03/23 07:23:45;;;;;;;40.65;18.00;;;;;;;9.18;75.64;93028.16;5039508;28;20381;-74
2024/03/23 07:26:10;;;;;;;40.42;17.65;;;;;;;9.43;74.97;93026.63;5041724;28;20196;-74
2024/03/23 07:28:43;;;;;;;27.48;13.70;;;;;;;9.21;74.32;92939.81;5043822;28;20120;-75
2024/03/23 07:31:10;;;;;;;14.45;7.55;;;;;;;10.24;72.45;92993.44;5040851;28;20029;-75
2024/03/23 07:33:46;;;;;;;20.13;8.07;;;;;;;10.91;69.92;93027.94;5039276;28;20083;-75
2024/03/23 07:36:12;;;;;;;9.38;6.32;;;;;;;11.15;67.49;93011.84;5040857;28;20756;-75
2024/03/23 07:38:41;;;;;;;10.77;6.55;;;;;;;11.67;65.93;93031.88;5042073;28;20029;-75
2024/03/23 07:41:09;;;;;;;11.23;6.10;;;;;;;11.87;64.88;93007.66;5046645;28;20440;-75
2024/03/23 07:43:35;;;;;;;9.93;6.43;;;;;;;12.00;63.11;93001.50;5048988;28;20036;-75
2024/03/23 07:46:01;;;;;;;10.80;5.28;;;;;;;12.32;62.46;93013.28;5045349;28;20032;-75
2024/03/23 07:48:28;;;;;;;10.02;5.68;;;;;;;12.64;61.61;93011.13;5047178;28;20037;-74
2024/03/23 07:51:10;;;;;;;9.32;5.80;;;;;;;12.80;59.83;93008.84;5047432;28;20028;-75
2024/03/23 07:53:37;;;;;;;8.00;5.28;;;;;;;13.04;58.51;93030.19;5044552;28;20024;-75
2024/03/23 07:56:08;;;;;;;10.82;5.03;;;;;;;13.10;57.85;93018.16;5046970;28;20040;-75
2024/03/23 07:58:33;;;;;;;10.77;5.68;;;;;;;12.95;58.11;92972.25;5047187;28;20526;-75
2024/03/23 08:01:09;;;;;;;7.07;4.35;;;;;;;13.48;57.47;93021.97;5045777;28;20025;-75
2024/03/23 08:03:38;;;;;;;8.52;4.95;;;;;;;13.51;57.05;93010.41;5045935;28;20705;-75
2024/03/23 08:06:19;;;;;;;6.65;4.90;;;;;;;13.71;56.23;93011.78;5042671;28;20033;-75
2024/03/23 08:08:46;;;;;;;6.72;3.97;;;;;;;13.65;54.56;92992.81;5046235;28;20052;-76
2024/03/23 08:11:13;;;;;;;7.70;5.00;;;;;;;14.10;54.54;93019.59;5040905;28;20146;-75
2024/03/23 08:13:39;;;;;;;;;;;;;;;14.35;54.79;93020.97;5040600;28;20040;-75
2024/03/23 08:16:05;;;;;;;7.40;4.47;;;;;;;14.13;52.64;92995.88;5039838;28;19920;-76
2024/03/23 08:18:31;;;;;;;6.22;4.30;;;;;;;14.53;52.92;93024.31;5045195;28;20025;-75
2024/03/23 08:21:00;;;;;;;7.15;4.07;;;;;;;14.40;51.33;93026.22;5045397;28;20424;-75
2024/03/23 08:23:27;;;;;;;8.02;4.50;;;;;;;14.49;51.83;93007.72;5041288;28;20045;-75
2024/03/23 08:25:58;;;;;;;6.38;4.30;;;;;;;14.66;51.14;92995.53;5042373;28;20385;-75
2024/03/23 08:28:24;;;;;;;6.97;4.47;;;;;;;14.79;50.99;92997.03;5041002;28;20039;-75
2024/03/23 08:30:49;;;;;;;8.18;4.10;;;;;;;14.99;49.45;93015.59;5042521;28;20384;-75
2024/03/23 08:33:15;;;;;;;6.47;4.07;;;;;;;15.00;48.91;93006.81;5040677;28;20481;-75
2024/03/23 08:35:41;;;;;;;;;;;;;;;15.24;48.11;93020.28;5040860;28;20044;-75
2024/03/23 08:38:07;;;;;;;8.70;5.00;;;;;;;15.04;49.40;92993.16;5040769;28;20469;-76
2024/03/23 08:40:32;;;;;;;6.93;4.50;;;;;;;15.14;48.38;92982.13;5043209;28;20025;-76
2024/03/23 08:42:58;;;;;;;7.05;4.25;;;;;;;15.34;48.29;92985.94;5040729;28;20535;-76
2024/03/23 08:45:26;;;;;;;7.07;4.45;;;;;;;15.41;47.46;92967.63;5035316;28;20471;-76
2024/03/23 08:47:52;;;;;;;7.07;4.32;;;;;;;15.62;47.15;93013.38;5040369;28;20682;-76
2024/03/23 08:50:17;;;;;;;5.28;3.75;;;;;;;15.80;46.46;92995.13;5039107;28;20041;-76
2024/03/23 08:52:44;;;;;;;8.10;4.82;;;;;;;15.68;46.25;92970.19;5039090;28;20040;-76
2024/03/23 08:55:09;;;;;;;9.05;4.53;;;;;;;16.06;46.32;92993.53;5039165;28;20119;-76
2024/03/23 08:57:36;;;;;;;8.10;4.63;;;;;;;16.11;46.07;92948.75;5039773;28;20041;-76
2024/03/23 09:00:02;;;;;;;8.20;4.78;;;;;;;16.24;44.74;92958.66;5040196;28;20037;-76
2024/03/23 09:02:28;;;;;;;16.58;5.70;;;;;;;16.33;45.41;92958.22;5039342;28;20095;-76
2024/03/23 09:04:53;;;;;;;6.65;3.83;;;;;;;16.43;43.68;92961.63;5040194;28;21037;-76
2024/03/23 09:07:18;;;;;;;6.53;3.97;;;;;;;16.75;41.60;92995.47;5038444;28;20096;-76
2024/03/23 09:09:44;;;;;;;6.28;3.22;;;;;;;16.32;41.29;92905.56;5040710;28;20032;-75
2024/03/23 09:12:09;;;;;;;15.40;5.72;;;;;;;16.70;40.68;92950.31;5036359;28;20044;-76
2024/03/23 09:14:35;;;;;;;17.33;7.40;;;;;;;16.94;40.41;92975.81;5039915;28;20028;-76
2024/03/23 09:17:00;;;;;;;7.70;3.53;;;;;;;16.99;40.84;92958.72;5042051;28;20037;-76
2024/03/23 09:19:29;;;;;;;6.82;3.53;;;;;;;16.80;38.91;92912.50;5038416;28;20052;-76
2024/03/23 09:21:55;;;;;;;8.38;3.90;;;;;;;17.19;38.63;92958.00;5038280;28;20481;-76
2024/03/23 09:24:21;;;;;;;;;;;;;;;17.43;39.34;92971.28;5039895;28;20044;-76
2024/03/23 09:26:46;;;;;;;6.35;3.22;;;;;;;17.18;36.32;92946.84;5039565;28;19917;-76
2024/03/23 09:29:12;;;;;;;5.32;3.10;;;;;;;17.09;35.97;92969.16;5039005;28;20063;-76
2024/03/23 09:31:38;;;;;;;5.68;3.15;;;;;;;16.98;37.81;92936.41;5038741;28;20148;-75
2024/03/23 09:34:04;;;;;;;5.68;3.47;;;;;;;17.05;38.68;92944.75;5039182;28;20029;-76
2024/03/23 09:36:29;;;;;;;4.53;3.17;;;;;;;17.03;39.15;92923.47;5042002;28;20021;-75
2024/03/23 09:38:55;;;;;;;4.75;3.22;;;;;;;17.36;37.62;92950.00;5043800;28;20029;-76
2024/03/23 09:41:20;;;;;;;6.38;3.40;;;;;;;17.18;38.92;92917.53;5042040;28;20069;-76
2024/03/23 09:43:48;;;;;;;7.60;3.38;;;;;;;17.33;38.66;92940.91;5043144;28;20954;-76
2024/03/23 09:46:14;;;;;;;6.88;3.50;;;;;;;17.43;38.33;92936.75;5043089;28;20033;-76
2024/03/23 09:48:40;;;;;;;6.78;3.78;;;;;;;17.31;39.14;92914.41;5043142;28;20063;-76
2024/03/23 09:51:08;;;;;;;4.32;3.00;;;;;;;17.23;35.63;92899.38;5042006;28;20489;-76
2024/03/23 09:53:33;;;;;;;7.22;4.63;;;;;;;17.01;37.24;92851.03;5042483;28;20139;-76
2024/03/23 09:55:59;;;;;;;5.47;3.25;;;;;;;17.27;37.90;92871.84;5041554;28;20029;-76
2024/03/23 09:58:24;;;;;;;7.25;3.28;;;;;;;17.83;38.25;92924.03;5045250;28;20444;-76
2024/03/23 10:00:50;;;;;;;5.82;2.88;;;;;;;17.79;38.77;92884.00;5048509;28;20537;-76
2024/03/23 10:03:15;;;;;;;9.35;3.97;;;;;;;17.98;38.34;92892.03;5048896;28;20040;-76
2024/03/23 10:05:42;;;;;;;6.45;3.20;;;;;;;18.21;36.94;92915.91;5043208;28;20055;-76
2024/03/23 10:08:13;;;;;;;6.30;4.00;;;;;;;18.26;37.51;92918.50;5046147;28;20036;-76
2024/03/23 10:10:39;;;;;;;8.05;3.08;;;;;;;18.14;37.00;92885.78;5045492;28;20044;-76
2024/03/23 10:13:04;;;;;;;5.38;2.83;;;;;;;18.28;35.60;92886.00;5046822;28;20045;-76
2024/03/23 10:15:33;;;;;;;7.50;2.80;;;;;;;18.13;36.26;92873.06;5045615;28;20045;-76
2024/03/23 10:18:20;;;;;;;7.15;3.15;;;;;;;18.47;35.43;92897.66;5047643;28;20071;-76
2024/03/23 10:20:52;;;;;;;7.38;3.28;;;;;;;18.52;35.42;92895.78;5042707;28;20048;-76
2024/03/23 10:23:18;;;;;;;4.68;3.15;;;;;;;18.36;34.98;92900.28;5047341;28;20059;-76
2024/03/23 10:25:44;;;;;;;6.38;3.75;;;;;;;18.46;35.53;92907.25;5047593;28;20041;-76
2024/03/23 10:28:11;;;;;;;5.35;2.63;;;;;;;18.40;34.96;92872.72;5046311;28;20041;-76
2024/03/23 10:30:37;;;;;;;4.18;2.65;;;;;;;18.53;34.03;92891.38;5049632;28;20037;-76
2024/03/23 10:33:09;;;;;;;4.05;2.47;;;;;;;18.08;33.21;92873.06;5047545;28;20523;-76
2024/03/23 10:35:36;;;;;;;4.50;2.78;;;;;;;17.31;33.62;92861.72;5047251;28;20389;-76
2024/03/23 10:38:04;;;;;;;5.53;2.95;;;;;;;17.35;35.00;92840.19;5045208;28;20064;-76
2024/03/23 10:40:30;;;;;;;4.78;2.83;;;;;;;17.93;35.01;92863.47;5048662;28;20025;-76
2024/03/23 10:42:58;;;;;;;4.97;3.05;;;;;;;18.26;33.93;92867.31;5047358;28;20028;-76
2024/03/23 10:45:24;;;;;;;4.13;2.50;;;;;;;17.92;31.67;92878.28;5048684;28;20040;-76
2024/03/23 10:47:49;;;;;;;3.58;2.28;;;;;;;18.23;33.49;92864.47;5044828;28;20021;-76
2024/03/23 10:50:15;;;;;;;5.68;3.20;;;;;;;17.90;32.64;92792.03;5047263;28;20480;-76
2024/03/23 10:52:46;;;;;;;3.88;2.58;;;;;;;18.43;33.30;92840.19;5046612;28;20032;-76
2024/03/23 10:55:15;;;;;;;4.32;2.35;;;;;;;18.59;32.14;92859.09;5044912;28;20060;-76
2024/03/23 10:58:02;;;;;;;5.40;2.63;;;;;;;18.55;32.26;92853.66;5047769;28;20036;-76
2024/03/23 11:00:27;;;;;;;4.53;2.38;;;;;;;18.17;32.68;92816.91;5044516;28;20052;-76
2024/03/23 11:02:53;;;;;;;4.82;2.88;;;;;;;18.32;33.79;92807.50;5047496;28;20029;-76
2024/03/23 11:05:24;;;;;;;5.55;2.80;;;;;;;18.71;33.70;92830.16;5046183;28;20052;-76
2024/03/23 11:07:50;;;;;;;6.22;2.45;;;;;;;18.54;33.22;92789.69;5044653;28;20354;-76
2024/03/23 11:10:32;;;;;;;;;;;;;;;19.02;32.27;92829.94;5046625;28;20048;-76
2024/03/23 11:13:18;;;;;;;4.60;2.85;;;;;;;18.77;33.06;92781.47;5051491;28;19917;-76
2024/03/23 11:15:44;;;;;;;4.75;2.85;;;;;;;18.73;30.41;92817.66;5045320;28;20681;-76
2024/03/23 11:18:09;;;;;;;3.75;2.22;;;;;;;18.30;30.38;92794.75;5044059;28;20059;-76
2024/03/23 11:20:35;;;;;;;4.32;2.35;;;;;;;18.22;30.90;92777.09;5044356;28;20041;-76
2024/03/23 11:23:02;;;;;;;3.85;2.05;;;;;;;18.45;32.78;92746.28;5042308;28;20041;-77
2024/03/23 11:25:28;;;;;;;9.40;6.28;;;;;;;18.88;31.99;92795.19;5043289;28;20033;-76
2024/03/23 11:27:57;;;;;;;10.13;7.35;;;;;;;19.01;31.67;92788.56;5045701;28;20036;-76